createdAt,value
2018-09-19T00:00:15.853Z,0.60
2018-09-19T00:02:46.918Z,0.73
2018-09-19T00:05:18.035Z,0.83
2018-09-19T00:07:49.220Z,0.67
2018-09-19T00:10:20.264Z,0.90
2018-09-19T00:12:51.345Z,0.70
2018-09-19T00:15:22.360Z,0.70
2018-09-19T00:17:53.406Z,0.90
2018-09-19T00:20:24.434Z,0.90
2018-09-19T00:22:55.356Z,0.60
2018-09-19T00:25:56.947Z,0.50
2018-09-19T00:28:29.050Z,0.63
2018-09-19T00:31:00.516Z,0.90
2018-09-19T00:33:32.326Z,0.70
2018-09-19T00:36:08.336Z,0.60
2018-09-19T00:38:46.907Z,0.67
2018-09-19T00:41:18.347Z,0.83
2018-09-19T00:43:49.573Z,1.00
2018-09-19T00:46:21.012Z,0.63
2018-09-19T00:48:52.072Z,0.67
2018-09-19T00:51:23.497Z,0.50
2018-09-19T00:53:54.684Z,0.80
2018-09-19T00:56:25.885Z,0.57
2018-09-19T00:58:57.031Z,0.50
2018-09-19T01:01:28.077Z,0.50
2018-09-19T01:03:59.374Z,0.73
2018-09-19T01:06:30.380Z,0.53
2018-09-19T01:09:01.389Z,0.80
2018-09-19T01:11:32.293Z,0.80
2018-09-19T01:14:03.522Z,0.60
2018-09-19T01:16:34.636Z,0.77
2018-09-19T01:19:05.672Z,0.60
2018-09-19T01:21:36.652Z,0.70
2018-09-19T01:24:08.730Z,0.73
2018-09-19T01:26:39.804Z,0.83
2018-09-19T01:29:10.750Z,0.50
2018-09-19T01:31:41.706Z,0.80
2018-09-19T01:34:12.755Z,0.60
2018-09-19T01:36:43.732Z,0.40
2018-09-19T01:39:14.946Z,0.70
2018-09-19T01:41:46.247Z,0.40
2018-09-19T01:44:17.343Z,0.40
2018-09-19T01:46:48.584Z,0.60
2018-09-19T01:49:19.666Z,0.70
2018-09-19T01:51:54.433Z,0.60
2018-09-19T01:54:26.537Z,1.27
2018-09-19T01:56:57.689Z,0.80
2018-09-19T01:59:28.639Z,0.50
2018-09-19T02:01:59.609Z,0.67
2018-09-19T02:04:30.516Z,0.67
2018-09-19T02:07:01.473Z,0.60
2018-09-19T02:09:32.698Z,0.70
2018-09-19T02:12:03.727Z,1.00
2018-09-19T02:14:34.712Z,1.20
2018-09-19T02:17:05.821Z,1.20
2018-09-19T02:19:36.774Z,0.90
2018-09-19T02:22:07.799Z,1.23
2018-09-19T02:24:38.720Z,0.87
2018-09-19T02:27:09.731Z,1.40
2018-09-19T02:29:40.666Z,1.07
2018-09-19T02:32:11.638Z,1.00
2018-09-19T02:34:42.766Z,1.27
2018-09-19T02:37:13.766Z,1.50
2018-09-19T02:39:44.780Z,1.43
2018-09-19T02:42:15.759Z,1.10
2018-09-19T02:44:46.868Z,1.47
2018-09-19T02:47:17.957Z,2.23
2018-09-19T02:49:48.917Z,1.50
2018-09-19T02:52:19.935Z,1.77
2018-09-19T02:54:50.963Z,1.37
2018-09-19T02:57:22.002Z,1.47
2018-09-19T02:59:52.950Z,1.70
2018-09-19T03:02:24.013Z,1.47
2018-09-19T03:04:55.231Z,2.03
2018-09-19T03:07:26.288Z,1.73
2018-09-19T03:09:57.424Z,1.90
2018-09-19T03:12:28.760Z,1.97
2018-09-19T03:14:59.712Z,2.07
2018-09-19T03:17:30.888Z,2.07
2018-09-19T03:20:01.827Z,2.00
2018-09-19T03:22:32.912Z,1.70
2018-09-19T03:25:03.970Z,1.93
2018-09-19T03:27:34.914Z,2.27
2018-09-19T03:30:05.997Z,2.20
2018-09-19T03:32:36.941Z,2.30
2018-09-19T03:35:08.021Z,2.47
2018-09-19T03:37:39.165Z,2.37
2018-09-19T03:40:10.095Z,2.10
2018-09-19T03:42:41.024Z,1.93
2018-09-19T03:45:11.965Z,1.90
2018-09-19T03:47:42.959Z,2.00
2018-09-19T03:50:13.940Z,2.17
2018-09-19T03:52:45.136Z,1.87
2018-09-19T03:55:16.104Z,2.60
2018-09-19T03:57:47.086Z,2.90
2018-09-19T04:00:18.128Z,2.73
2018-09-19T04:02:49.218Z,3.03
2018-09-19T04:05:20.193Z,2.43
2018-09-19T04:07:51.212Z,2.80
2018-09-19T04:10:22.287Z,3.27
2018-09-19T04:12:53.423Z,2.63
2018-09-19T04:15:24.513Z,3.23
2018-09-19T04:17:55.846Z,2.40
2018-09-19T04:20:27.018Z,3.40
2018-09-19T04:22:58.157Z,3.20
2018-09-19T04:25:29.251Z,2.80
2018-09-19T04:28:00.519Z,3.13
2018-09-19T04:30:31.541Z,3.23
2018-09-19T04:33:02.644Z,3.03
2018-09-19T04:35:33.722Z,2.93
2018-09-19T04:38:05.133Z,2.60
2018-09-19T04:40:36.339Z,2.80
2018-09-19T04:43:07.648Z,2.83
2018-09-19T04:45:38.778Z,2.77
2018-09-19T04:48:09.933Z,2.87
2018-09-19T04:50:41.033Z,2.60
2018-09-19T04:53:12.092Z,2.70
2018-09-19T04:55:43.098Z,2.40
2018-09-19T04:58:14.132Z,2.33
2018-09-19T05:00:45.344Z,2.60
2018-09-19T05:03:16.327Z,3.17
2018-09-19T05:05:47.504Z,2.20
2018-09-19T05:08:18.740Z,2.10
2018-09-19T05:10:49.788Z,2.10
2018-09-19T05:13:20.780Z,3.77
2018-09-19T05:15:51.948Z,2.40
2018-09-19T05:18:22.933Z,2.60
2018-09-19T05:20:54.054Z,2.43
2018-09-19T05:23:25.285Z,2.17
2018-09-19T05:25:56.382Z,2.43
2018-09-19T05:28:27.599Z,2.10
2018-09-19T05:30:58.691Z,2.23
2018-09-19T05:33:29.740Z,2.53
2018-09-19T05:36:00.827Z,1.97
2018-09-19T05:38:31.889Z,2.23
2018-09-19T05:43:28.681Z,2.80
2018-09-19T05:45:59.805Z,2.00
2018-09-19T05:48:30.843Z,2.60
2018-09-19T05:51:01.963Z,1.83
2018-09-19T05:53:33.143Z,2.43
2018-09-19T05:56:04.220Z,2.27
2018-09-19T05:58:35.312Z,2.50
2018-09-19T06:01:06.476Z,2.10
2018-09-19T06:03:37.628Z,2.00
2018-09-19T06:06:08.788Z,2.30
2018-09-19T06:08:40.141Z,2.00
2018-09-19T06:11:11.256Z,2.03
2018-09-19T06:13:42.528Z,2.20
2018-09-19T06:16:13.477Z,2.20
2018-09-19T06:18:44.615Z,2.00
2018-09-19T06:21:15.710Z,2.33
2018-09-19T06:23:46.919Z,2.10
2018-09-19T06:26:18.045Z,2.30
2018-09-19T06:28:49.164Z,2.10
2018-09-19T06:31:20.260Z,2.00
2018-09-19T06:33:51.332Z,1.50
2018-09-19T06:36:22.316Z,1.60
2018-09-19T06:38:53.357Z,1.57
2018-09-19T06:41:24.542Z,2.00
2018-09-19T06:43:55.592Z,2.07
2018-09-19T06:46:26.820Z,2.17
2018-09-19T06:48:57.824Z,2.40
2018-09-19T06:51:28.994Z,1.77
2018-09-19T06:54:00.028Z,1.80
2018-09-19T06:56:31.136Z,1.47
2018-09-19T06:59:02.288Z,1.60
2018-09-19T07:01:33.477Z,1.50
2018-09-19T07:04:04.725Z,1.47
2018-09-19T07:06:35.877Z,1.50
2018-09-19T07:09:08.639Z,1.77
2018-09-19T07:11:39.784Z,1.43
2018-09-19T07:14:11.094Z,1.60
2018-09-19T07:16:42.197Z,1.67
2018-09-19T07:19:13.309Z,1.30
2018-09-19T07:21:44.331Z,1.43
2018-09-19T07:24:15.391Z,1.43
2018-09-19T07:26:46.384Z,1.70
2018-09-19T07:29:17.468Z,1.10
2018-09-19T07:31:48.608Z,1.43
2018-09-19T07:34:19.587Z,1.47
2018-09-19T07:36:50.577Z,1.40
2018-09-19T07:39:21.845Z,1.63
2018-09-19T07:44:18.543Z,1.83
2018-09-19T07:46:49.480Z,1.90
2018-09-19T07:49:20.566Z,2.03
2018-09-19T07:51:51.836Z,1.73
2018-09-19T07:54:23.046Z,1.97
2018-09-19T07:56:54.289Z,1.57
2018-09-19T07:59:25.352Z,1.83
2018-09-19T08:01:56.354Z,1.87
2018-09-19T08:04:27.627Z,1.60
2018-09-19T08:06:58.778Z,1.40
2018-09-19T08:09:29.922Z,1.57
2018-09-19T08:12:01.055Z,2.00
2018-09-19T08:14:32.193Z,1.70
2018-09-19T08:17:03.378Z,1.70
2018-09-19T08:19:34.476Z,1.57
2018-09-19T08:22:05.700Z,1.60
2018-09-19T08:24:36.801Z,1.60
2018-09-19T08:27:08.004Z,1.70
2018-09-19T08:29:39.085Z,1.40
2018-09-19T08:32:10.260Z,1.43
2018-09-19T08:34:41.481Z,1.60
2018-09-19T08:37:12.581Z,1.37
2018-09-19T08:39:43.665Z,1.23
2018-09-19T08:42:14.824Z,1.23
2018-09-19T08:44:45.992Z,1.43
2018-09-19T08:47:17.237Z,1.50
2018-09-19T08:49:48.589Z,1.87
2018-09-19T08:52:19.771Z,1.60
2018-09-19T08:54:50.982Z,1.27
2018-09-19T08:57:22.040Z,1.40
2018-09-19T08:59:53.396Z,1.73
2018-09-19T09:02:24.560Z,1.53
2018-09-19T09:04:55.869Z,1.80
2018-09-19T09:07:26.960Z,1.60
2018-09-19T09:09:57.992Z,1.60
2018-09-19T09:12:29.031Z,1.57
2018-09-19T09:15:00.045Z,1.73
2018-09-19T09:17:31.055Z,1.40
2018-09-19T09:20:02.269Z,2.03
2018-09-19T09:22:33.440Z,1.57
2018-09-19T09:25:04.437Z,2.13
2018-09-19T09:27:35.422Z,2.13
2018-09-19T09:30:06.543Z,1.57
2018-09-19T09:32:37.559Z,1.37
2018-09-19T09:35:08.753Z,1.50
2018-09-19T09:37:39.872Z,1.50
2018-09-19T09:40:10.919Z,1.57
2018-09-19T09:45:07.810Z,1.93
2018-09-19T09:47:38.969Z,1.33
2018-09-19T09:50:10.120Z,1.73
2018-09-19T09:52:41.168Z,1.87
2018-09-19T09:55:12.267Z,1.80
2018-09-19T09:57:43.464Z,1.67
2018-09-19T10:00:14.981Z,2.10
2018-09-19T10:02:46.117Z,1.23
2018-09-19T10:05:17.376Z,1.40
2018-09-19T10:07:48.887Z,1.50
2018-09-19T10:10:20.081Z,1.80
2018-09-19T10:12:51.209Z,1.67
2018-09-19T10:15:22.368Z,1.87
2018-09-19T10:17:53.501Z,1.60
2018-09-19T10:20:24.600Z,1.30
2018-09-19T10:22:56.308Z,1.73
2018-09-19T10:25:27.468Z,1.30
2018-09-19T10:27:58.528Z,1.70
2018-09-19T10:30:29.653Z,1.77
2018-09-19T10:33:00.848Z,2.10
2018-09-19T10:35:32.025Z,1.87
2018-09-19T10:38:03.172Z,1.77
2018-09-19T10:40:34.236Z,1.60
2018-09-19T10:43:05.228Z,1.03
2018-09-19T10:45:36.266Z,1.33
2018-09-19T10:48:07.240Z,1.37
2018-09-19T10:50:38.290Z,1.50
2018-09-19T10:53:09.293Z,1.40
2018-09-19T10:55:40.355Z,1.30
2018-09-19T10:58:11.449Z,2.10
2018-09-19T11:00:42.536Z,1.63
2018-09-19T11:03:13.619Z,1.60
2018-09-19T11:05:44.888Z,1.13
2018-09-19T11:08:15.981Z,1.43
2018-09-19T11:10:47.264Z,2.00
2018-09-19T11:13:18.431Z,1.80
2018-09-19T11:15:49.465Z,1.80
2018-09-19T11:18:20.613Z,1.50
2018-09-19T11:20:51.960Z,1.40
2018-09-19T11:23:23.024Z,1.70
2018-09-19T11:25:54.152Z,1.30
2018-09-19T11:28:25.220Z,1.77
2018-09-19T11:30:56.303Z,1.40
2018-09-19T11:33:27.418Z,1.63
2018-09-19T11:35:58.520Z,1.57
2018-09-19T11:38:29.821Z,1.90
2018-09-19T11:41:00.944Z,1.80
2018-09-19T11:43:32.028Z,2.07
2018-09-19T11:46:03.083Z,1.73
2018-09-19T11:48:34.083Z,1.43
2018-09-19T11:51:05.183Z,1.77
2018-09-19T11:53:36.192Z,1.40
2018-09-19T11:56:07.177Z,1.63
2018-09-19T11:58:39.025Z,1.80
2018-09-19T12:01:10.268Z,1.63
2018-09-19T12:03:41.456Z,1.80
2018-09-19T12:06:12.488Z,1.90
2018-09-19T12:08:43.536Z,2.17
2018-09-19T12:11:15.674Z,1.70
2018-09-19T12:13:46.788Z,1.50
2018-09-19T12:16:17.847Z,2.07
2018-09-19T12:18:48.913Z,1.90
2018-09-19T12:21:20.753Z,1.90
2018-09-19T12:23:51.876Z,2.10
2018-09-19T12:26:22.927Z,1.70
2018-09-19T12:28:54.284Z,1.93
2018-09-19T12:31:25.423Z,2.07
2018-09-19T12:33:56.447Z,1.97
2018-09-19T12:41:31.844Z,1.67
2018-09-19T12:44:02.867Z,2.30
2018-09-19T12:46:33.950Z,2.20
2018-09-19T12:49:04.969Z,2.00
2018-09-19T12:51:35.983Z,1.90
2018-09-19T12:54:06.910Z,1.73
2018-09-19T12:56:37.907Z,2.20
2018-09-19T12:59:09.052Z,2.20
2018-09-19T13:01:40.229Z,2.33
2018-09-19T13:04:11.301Z,1.97
2018-09-19T13:06:42.494Z,1.83
2018-09-19T13:09:13.624Z,2.33
2018-09-19T13:14:10.539Z,1.57
2018-09-19T13:16:41.600Z,2.50
2018-09-19T13:19:12.720Z,1.93
2018-09-19T13:21:43.764Z,1.90
2018-09-19T13:24:14.879Z,2.40
2018-09-19T13:26:46.008Z,2.07
2018-09-19T13:29:17.128Z,1.77
2018-09-19T13:31:48.408Z,3.20
2018-09-19T13:34:19.446Z,2.07
2018-09-19T13:36:50.809Z,1.97
2018-09-19T13:39:21.914Z,2.50
2018-09-19T13:41:52.986Z,2.23
2018-09-19T13:44:24.040Z,1.63
2018-09-19T13:46:55.156Z,2.03
2018-09-19T13:49:29.624Z,1.87
2018-09-19T13:52:00.817Z,1.67
2018-09-19T13:54:31.921Z,2.60
2018-09-19T13:57:03.457Z,2.10
2018-09-19T13:59:34.528Z,1.97
2018-09-19T14:02:05.555Z,2.40
2018-09-19T14:04:36.662Z,2.13
2018-09-19T14:07:07.204Z,2.00
2018-09-19T14:09:38.252Z,1.70
2018-09-19T14:12:09.520Z,1.93
2018-09-19T14:14:40.885Z,1.90
2018-09-19T14:17:12.204Z,1.63
2018-09-19T14:19:43.505Z,1.77
2018-09-19T14:22:15.029Z,2.00
2018-09-19T14:24:46.128Z,2.10
2018-09-19T14:27:17.302Z,1.97
2018-09-19T14:29:48.564Z,1.73
2018-09-19T14:32:19.708Z,1.80
2018-09-19T14:34:50.809Z,1.80
2018-09-19T14:37:21.848Z,2.13
2018-09-19T14:39:52.994Z,1.90
2018-09-19T14:42:24.089Z,2.37
2018-09-19T14:44:55.221Z,2.10
2018-09-19T14:47:26.344Z,1.97
2018-09-19T14:49:57.380Z,1.93
2018-09-19T14:52:28.384Z,2.03
2018-09-19T14:54:59.424Z,2.40
2018-09-19T14:57:30.475Z,1.90
2018-09-19T15:00:01.443Z,2.30
2018-09-19T15:02:32.438Z,2.13
2018-09-19T15:05:03.645Z,2.70
2018-09-19T15:07:34.760Z,1.67
2018-09-19T15:10:06.124Z,2.37
2018-09-19T15:12:37.179Z,3.00
2018-09-19T15:15:08.181Z,1.97
2018-09-19T15:17:39.365Z,1.87
2018-09-19T15:20:10.583Z,1.90
2018-09-19T15:22:41.564Z,2.10
2018-09-19T15:25:12.561Z,2.43
2018-09-19T15:27:43.536Z,2.87
2018-09-19T15:30:14.520Z,2.20
2018-09-19T15:32:45.548Z,2.00
2018-09-19T15:35:16.554Z,2.13
2018-09-19T15:37:47.589Z,1.80
2018-09-19T15:40:18.607Z,1.60
2018-09-19T15:42:49.876Z,2.10
2018-09-19T15:45:20.986Z,1.93
2018-09-19T15:47:52.409Z,2.00
2018-09-19T15:50:23.381Z,1.97
2018-09-19T15:53:08.517Z,1.70
2018-09-19T15:55:39.735Z,2.37
2018-09-19T15:58:11.089Z,2.33
2018-09-19T16:00:42.167Z,1.93
2018-09-19T16:03:13.168Z,2.00
2018-09-19T16:05:44.225Z,1.30
2018-09-19T16:08:15.249Z,1.40
2018-09-19T16:10:46.233Z,2.00
2018-09-19T16:13:17.224Z,1.80
2018-09-19T16:15:48.235Z,1.80
2018-09-19T16:18:19.148Z,1.77
2018-09-19T16:20:50.120Z,1.77
2018-09-19T16:23:21.092Z,2.00
2018-09-19T16:25:52.041Z,1.87
2018-09-19T16:28:23.176Z,2.10
2018-09-19T16:30:54.280Z,1.93
2018-09-19T16:33:25.315Z,1.47
2018-09-19T16:35:56.364Z,1.60
2018-09-19T16:38:27.301Z,1.50
2018-09-19T16:40:58.380Z,1.70
2018-09-19T16:43:29.641Z,1.63
2018-09-19T16:48:26.385Z,1.60
2018-09-19T16:50:57.384Z,1.80
2018-09-19T16:53:28.824Z,1.80
2018-09-19T16:55:59.915Z,2.30
2018-09-19T16:58:31.110Z,2.07
2018-09-19T17:01:02.156Z,2.17
2018-09-19T17:03:33.194Z,2.73
2018-09-19T17:06:04.233Z,1.97
2018-09-19T17:08:35.334Z,1.60
2018-09-19T17:11:06.401Z,1.97
2018-09-19T17:13:37.442Z,1.77
2018-09-19T17:16:08.570Z,1.67
2018-09-19T17:18:39.902Z,1.80
2018-09-19T17:21:11.336Z,1.73
2018-09-19T17:23:42.513Z,1.90
2018-09-19T17:26:13.732Z,1.53
2018-09-19T17:31:10.485Z,1.47
2018-09-19T17:33:41.696Z,1.23
2018-09-19T17:36:12.930Z,1.20
2018-09-19T17:38:43.951Z,1.37
2018-09-19T17:41:14.991Z,1.70
2018-09-19T17:43:46.089Z,1.20
2018-09-19T17:46:18.258Z,1.50
2018-09-19T17:48:49.288Z,1.07
2018-09-19T17:51:20.381Z,1.10
2018-09-19T17:53:51.556Z,1.03
2018-09-19T17:56:22.632Z,1.37
2018-09-19T17:58:53.694Z,0.93
2018-09-19T18:01:24.880Z,0.87
2018-09-19T18:03:55.960Z,1.03
2018-09-19T18:06:27.091Z,0.87
2018-09-19T18:08:58.301Z,1.20
2018-09-19T18:11:29.652Z,1.20
2018-09-19T18:14:00.684Z,1.43
2018-09-19T18:16:31.829Z,1.50
2018-09-19T18:19:03.003Z,1.00
2018-09-19T18:21:34.080Z,1.33
2018-09-19T18:24:05.220Z,1.07
2018-09-19T18:26:36.349Z,1.13
2018-09-19T18:29:07.382Z,1.20
2018-09-19T18:31:38.493Z,1.00
2018-09-19T18:34:09.905Z,1.20
2018-09-19T18:36:40.922Z,1.63
2018-09-19T18:39:11.893Z,1.07
2018-09-19T18:41:43.019Z,1.10
2018-09-19T18:44:14.048Z,1.10
2018-09-19T18:46:45.388Z,1.13
2018-09-19T18:49:16.528Z,0.97
2018-09-19T18:51:47.576Z,0.90
2018-09-19T18:54:23.534Z,0.90
2018-09-19T18:56:54.589Z,0.87
2018-09-19T18:59:25.617Z,0.97
2018-09-19T19:04:33.511Z,0.90
2018-09-19T19:07:04.520Z,0.87
2018-09-19T19:09:35.570Z,1.00
2018-09-19T19:12:06.517Z,1.03
2018-09-19T19:14:37.537Z,1.13
2018-09-19T19:17:08.613Z,1.10
2018-09-19T19:19:39.623Z,0.80
2018-09-19T19:24:36.385Z,1.27
2018-09-19T19:27:07.409Z,0.80
2018-09-19T19:29:38.509Z,0.90
2018-09-19T19:32:09.561Z,0.80
2018-09-19T19:34:40.785Z,0.63
2018-09-19T19:37:11.880Z,0.93
2018-09-19T19:39:42.876Z,1.03
2018-09-19T19:42:13.816Z,0.70
2018-09-19T19:44:44.811Z,0.60
2018-09-19T19:47:15.842Z,0.70
2018-09-19T19:49:46.853Z,0.77
2018-09-19T19:52:17.901Z,0.57
2018-09-19T19:54:49.118Z,0.63
2018-09-19T19:57:20.149Z,0.80
2018-09-19T19:59:51.377Z,0.67
2018-09-19T20:02:22.436Z,0.90
2018-09-19T20:04:53.569Z,0.80
2018-09-19T20:07:24.617Z,0.50
2018-09-19T20:09:55.587Z,0.90
2018-09-19T20:12:26.658Z,0.73
2018-09-19T20:14:57.627Z,0.83
2018-09-19T20:17:28.864Z,0.60
2018-09-19T20:20:00.096Z,1.03
2018-09-19T20:22:31.052Z,0.90
2018-09-19T20:25:02.097Z,0.87
2018-09-19T20:27:33.074Z,0.70
2018-09-19T20:30:04.048Z,0.63
2018-09-19T20:32:35.131Z,0.70
2018-09-19T20:35:06.217Z,0.80
2018-09-19T20:37:37.268Z,0.70
2018-09-19T20:40:08.363Z,0.83
2018-09-19T20:42:39.376Z,0.60
2018-09-19T20:45:10.392Z,0.60
2018-09-19T20:47:41.404Z,0.70
2018-09-19T20:50:12.418Z,0.70
2018-09-19T20:52:43.417Z,0.80
2018-09-19T20:55:14.352Z,0.87
2018-09-19T20:57:45.345Z,0.73
2018-09-19T21:00:16.360Z,0.73
2018-09-19T21:02:47.404Z,0.70
2018-09-19T21:05:18.447Z,0.80
2018-09-19T21:07:49.528Z,0.80
2018-09-19T21:10:20.551Z,0.60
2018-09-19T21:12:51.702Z,0.70
2018-09-19T21:15:22.925Z,0.53
2018-09-19T21:17:53.950Z,0.53
2018-09-19T21:20:24.984Z,0.80
2018-09-19T21:22:56.172Z,0.60
2018-09-19T21:25:27.381Z,0.50
2018-09-19T21:27:58.710Z,0.73
2018-09-19T21:30:30.003Z,0.77
2018-09-19T21:33:01.250Z,0.60
2018-09-19T21:35:32.355Z,0.47
2018-09-19T21:38:03.516Z,0.63
2018-09-19T21:40:35.431Z,0.80
2018-09-19T21:43:06.469Z,0.77
2018-09-19T21:45:37.533Z,1.10
2018-09-19T21:48:08.545Z,1.20
2018-09-19T21:50:39.561Z,0.80
2018-09-19T21:53:10.537Z,1.10
2018-09-19T21:55:41.539Z,0.80
2018-09-19T21:58:12.561Z,0.70
2018-09-19T22:00:44.220Z,1.00
2018-09-19T22:03:15.256Z,0.60
2018-09-19T22:05:46.254Z,0.80
2018-09-19T22:08:17.300Z,0.60
2018-09-19T22:13:14.264Z,0.70
2018-09-19T22:15:45.692Z,0.80
2018-09-19T22:18:16.670Z,0.80
2018-09-19T22:20:47.617Z,0.80
2018-09-19T22:23:18.550Z,0.67
2018-09-19T22:25:49.486Z,0.73
2018-09-19T22:28:20.424Z,0.70
2018-09-19T22:30:51.404Z,0.67
2018-09-19T22:33:22.368Z,0.57
2018-09-19T22:35:53.397Z,0.73
2018-09-19T22:38:24.444Z,0.80
2018-09-19T22:40:55.445Z,0.70
2018-09-19T22:43:26.421Z,0.87
2018-09-19T22:45:57.536Z,0.80
2018-09-19T22:48:28.664Z,0.73
2018-09-19T22:50:59.932Z,0.90
2018-09-19T22:53:31.468Z,0.60
2018-09-19T22:56:03.512Z,0.67
2018-09-19T22:58:34.697Z,0.60
2018-09-19T23:01:06.870Z,0.70
2018-09-19T23:03:37.907Z,1.10
2018-09-19T23:06:08.904Z,0.90
2018-09-19T23:08:40.949Z,0.80
2018-09-19T23:11:12.363Z,0.70
2018-09-19T23:13:43.452Z,0.90
2018-09-19T23:16:14.665Z,0.90
2018-09-19T23:18:45.608Z,0.70
2018-09-19T23:21:16.566Z,0.57
2018-09-19T23:23:47.560Z,1.13
2018-09-19T23:26:18.778Z,0.93
2018-09-19T23:28:49.800Z,0.80
2018-09-19T23:31:20.948Z,0.80
2018-09-19T23:33:53.082Z,0.90
2018-09-19T23:36:24.225Z,0.80
2018-09-19T23:38:55.356Z,0.83
2018-09-19T23:41:26.438Z,0.60
2018-09-19T23:43:57.384Z,1.23
2018-09-19T23:46:28.456Z,0.80
2018-09-19T23:49:00.086Z,1.03
2018-09-19T23:51:31.156Z,0.80
2018-09-19T23:54:02.388Z,1.00
2018-09-19T23:56:33.552Z,1.00
2018-09-19T23:59:04.762Z,0.90
